Time;durP1;ratioP1;P1;durP2;ratioP2;P2;SDS_P1;SDS_P2;PMS_P1;PMS_P2;Temp;Humidity;BMP_temperature;BMP_pressure;BME280_temperature;BME280_humidity;BME280_pressure;Samples;Min_cycle;Max_cycle;Signal;HPM_P1;HPM_P2
2022/04/21 00:01:38;;;;;;;5.70;2.80;;;;;;;;;;4915798;29;20373;-79
2022/04/21 00:04:03;;;;;;;6.45;3.00;;;;;;;;;;4930312;29;20020;-79
2022/04/21 00:06:28;;;;;;;7.30;3.10;;;;;;;;;;4918443;29;20111;-79
2022/04/21 00:08:54;;;;;;;8.18;2.92;;;;;;;;;;4916642;29;20020;-79
2022/04/21 00:11:19;;;;;;;4.03;2.42;;;;;;;;;;4916597;29;20085;-80
2022/04/21 00:13:44;;;;;;;10.23;3.15;;;;;;;;;;4916356;29;20020;-81
2022/04/21 00:16:09;;;;;;;9.50;3.78;;;;;;;;;;4916554;29;20107;-79
2022/04/21 00:18:35;;;;;;;8.43;2.90;;;;;;;;;;4917689;29;20103;-79
2022/04/21 00:21:01;;;;;;;5.03;2.67;;;;;;;;;;4922250;29;20024;-81
2022/04/21 00:23:26;;;;;;;9.43;3.25;;;;;;;;;;4916326;29;20074;-78
2022/04/21 00:25:53;;;;;;;5.63;2.85;;;;;;;;;;4916380;29;20503;-79
2022/04/21 00:28:18;;;;;;;6.65;2.88;;;;;;;;;;4915795;29;20020;-79
2022/04/21 00:30:43;;;;;;;8.68;2.75;;;;;;;;;;4916041;29;20506;-79
2022/04/21 00:33:08;;;;;;;4.35;2.60;;;;;;;;;;4915955;29;20476;-80
2022/04/21 00:35:33;;;;;;;8.98;3.53;;;;;;;;;;4916222;29;20059;-79
2022/04/21 00:37:59;;;;;;;6.10;3.25;;;;;;;;;;4916011;29;20040;-80
2022/04/21 00:40:26;;;;;;;4.97;2.70;;;;;;;;;;4914644;29;20215;-80
2022/04/21 00:42:52;;;;;;;7.95;3.10;;;;;;;;;;4911354;29;20020;-79
2022/04/21 00:45:17;;;;;;;6.95;3.10;;;;;;;;;;4923466;29;20099;-81
2022/04/21 00:47:45;;;;;;;7.25;3.28;;;;;;;;;;4917873;29;20016;-79
2022/04/21 00:50:18;;;;;;;7.40;3.05;;;;;;;;;;4917797;29;20437;-81
2022/04/21 00:52:44;;;;;;;7.28;3.30;;;;;;;;;;4917652;29;20102;-81
2022/04/21 00:55:09;;;;;;;8.45;3.10;;;;;;;;;;4934779;29;20483;-78
2022/04/21 00:57:35;;;;;;;8.68;3.50;;;;;;;;;;4934848;29;20103;-80
2022/04/21 01:00:02;;;;;;;7.00;2.80;;;;;;;;;;4922241;29;20028;-81
2022/04/21 01:02:46;;;;;;;7.07;2.88;;;;;;;;;;4923531;29;20028;-78
2022/04/21 01:05:11;;;;;;;5.47;2.80;;;;;;;;;;4914675;29;20476;-77
2022/04/21 01:07:37;;;;;;;6.07;3.13;;;;;;;;;;4915784;29;20031;-79
2022/04/21 01:10:02;;;;;;;6.53;3.08;;;;;;;;;;4915621;29;20059;-78
2022/04/21 01:12:29;;;;;;;5.85;3.20;;;;;;;;;;4915597;29;20119;-81
2022/04/21 01:14:55;;;;;;;10.38;3.42;;;;;;;;;;4914423;29;20028;-78
2022/04/21 01:17:30;;;;;;;8.55;2.95;;;;;;;;;;4917978;29;20025;-78
2022/04/21 01:19:55;;;;;;;5.40;3.20;;;;;;;;;;4923390;29;20023;-79
2022/04/21 01:22:20;;;;;;;7.13;3.30;;;;;;;;;;4915631;29;20028;-81
2022/04/21 01:24:45;;;;;;;7.20;3.80;;;;;;;;;;4915720;29;20491;-80
2022/04/21 01:27:10;;;;;;;7.25;3.00;;;;;;;;;;4914404;29;20480;-81
2022/04/21 01:29:36;;;;;;;7.35;3.25;;;;;;;;;;4915669;29;20095;-79
2022/04/21 01:32:04;;;;;;;7.35;3.22;;;;;;;;;;4916186;29;20392;-82
2022/04/21 01:34:29;;;;;;;11.50;3.45;;;;;;;;;;4905840;29;20119;-78
2022/04/21 01:42:22;;;;;;;5.95;2.95;;;;;;;;;;4919327;29;20101;-79
2022/04/21 01:44:47;;;;;;;8.50;3.30;;;;;;;;;;4919234;29;20027;-79
2022/04/21 01:47:12;;;;;;;9.25;3.03;;;;;;;;;;4919340;29;20468;-79
2022/04/21 01:49:37;;;;;;;6.70;3.38;;;;;;;;;;4917942;29;20060;-77
2022/04/21 01:52:03;;;;;;;6.88;3.10;;;;;;;;;;4926921;29;20019;-79
2022/04/21 01:54:28;;;;;;;5.43;2.80;;;;;;;;;;4918921;29;20028;-77
2022/04/21 01:56:53;;;;;;;7.10;3.67;;;;;;;;;;4917840;29;20035;-80
2022/04/21 01:59:18;;;;;;;6.00;3.00;;;;;;;;;;4918978;29;20020;-79
2022/04/21 02:01:44;;;;;;;7.35;3.00;;;;;;;;;;4919086;29;20088;-79
2022/04/21 02:04:09;;;;;;;9.30;2.88;;;;;;;;;;4919136;29;20012;-77
2022/04/21 02:06:34;;;;;;;8.68;2.97;;;;;;;;;;4918047;29;20020;-79
2022/04/21 02:09:03;;;;;;;7.57;2.85;;;;;;;;;;4931952;29;20043;-79
2022/04/21 02:11:28;;;;;;;7.93;3.58;;;;;;;;;;4938052;29;20119;-81
2022/04/21 02:13:53;;;;;;;8.80;3.78;;;;;;;;;;4937642;29;20060;-79
2022/04/21 02:16:18;;;;;;;5.93;3.13;;;;;;;;;;4937588;29;20471;-79
2022/04/21 02:18:44;;;;;;;6.80;3.10;;;;;;;;;;4937602;29;20031;-80
2022/04/21 02:21:09;;;;;;;6.32;3.15;;;;;;;;;;4937701;29;20039;-80
2022/04/21 02:23:34;;;;;;;8.85;3.20;;;;;;;;;;4909410;29;20016;-81
2022/04/21 02:25:59;;;;;;;6.30;3.42;;;;;;;;;;4924247;29;20035;-78
2022/04/21 02:28:25;;;;;;;8.15;3.08;;;;;;;;;;4918709;29;20020;-78
2022/04/21 02:30:50;;;;;;;7.22;3.17;;;;;;;;;;4918499;29;20440;-78
2022/04/21 02:33:15;;;;;;;5.55;2.72;;;;;;;;;;4918295;29;20484;-78
2022/04/21 02:35:41;;;;;;;6.65;3.38;;;;;;;;;;4918575;29;20016;-80
2022/04/21 02:38:06;;;;;;;7.93;3.05;;;;;;;;;;4918451;29;20040;-77
2022/04/21 02:40:31;;;;;;;10.05;3.90;;;;;;;;;;4919176;29;20074;-76
2022/04/21 02:42:56;;;;;;;7.47;3.67;;;;;;;;;;4924104;29;20031;-79
2022/04/21 02:45:22;;;;;;;8.57;3.67;;;;;;;;;;4917627;29;20021;-79
2022/04/21 02:47:48;;;;;;;8.13;4.55;;;;;;;;;;4917204;29;20051;-77
2022/04/21 02:50:14;;;;;;;7.18;3.35;;;;;;;;;;4918173;29;20023;-79
2022/04/21 02:52:40;;;;;;;7.85;3.35;;;;;;;;;;4916923;29;20476;-78
2022/04/21 02:57:50;;;;;;;8.65;3.35;;;;;;;;;;4925206;29;20027;-79
2022/04/21 03:00:15;;;;;;;10.27;3.33;;;;;;;;;;4933612;29;20051;-78
2022/04/21 03:02:41;;;;;;;7.40;3.17;;;;;;;;;;4937509;29;20019;-79
2022/04/21 03:05:06;;;;;;;8.60;3.42;;;;;;;;;;4937835;29;20023;-78
2022/04/21 03:07:31;;;;;;;7.57;3.72;;;;;;;;;;4937452;29;20054;-78
2022/04/21 03:09:57;;;;;;;8.82;3.50;;;;;;;;;;4937738;29;20020;-79
2022/04/21 03:12:23;;;;;;;7.03;3.33;;;;;;;;;;4937189;29;20530;-78
2022/04/21 03:14:49;;;;;;;10.20;3.95;;;;;;;;;;4926444;29;20495;-79
2022/04/21 03:17:14;;;;;;;9.13;3.75;;;;;;;;;;4925964;29;20074;-78
2022/04/21 03:19:40;;;;;;;9.48;4.03;;;;;;;;;;4918182;29;20472;-81
2022/04/21 03:24:49;;;;;;;8.38;3.65;;;;;;;;;;4918579;29;20027;-82
2022/04/21 03:27:14;;;;;;;7.38;3.45;;;;;;;;;;4917779;29;20102;-79
2022/04/21 03:29:40;;;;;;;11.60;4.80;;;;;;;;;;4915639;29;20387;-81
2022/04/21 03:32:06;;;;;;;10.68;3.83;;;;;;;;;;4906638;29;20030;-80
2022/04/21 03:34:31;;;;;;;12.23;3.38;;;;;;;;;;4916102;29;20024;-81
2022/04/21 03:36:57;;;;;;;8.80;3.05;;;;;;;;;;4916553;29;20304;-77
2022/04/21 03:39:22;;;;;;;7.10;3.65;;;;;;;;;;4917418;29;20043;-79
2022/04/21 03:41:53;;;;;;;10.68;3.45;;;;;;;;;;4917507;29;20035;-79
2022/04/21 03:44:18;;;;;;;5.78;3.40;;;;;;;;;;4917195;29;20027;-78
2022/04/21 03:46:44;;;;;;;9.32;4.05;;;;;;;;;;4916285;29;20424;-81
2022/04/21 03:49:09;;;;;;;10.23;3.85;;;;;;;;;;4924204;29;20023;-82
2022/04/21 03:51:34;;;;;;;7.05;3.10;;;;;;;;;;4936584;29;20290;-81
2022/04/21 03:54:00;;;;;;;8.20;3.65;;;;;;;;;;4919592;29;20373;-83
2022/04/21 03:56:26;;;;;;;9.30;4.00;;;;;;;;;;4939659;29;20020;-81
2022/04/21 03:58:51;;;;;;;10.07;4.30;;;;;;;;;;4920954;29;20451;-81
2022/04/21 04:01:17;;;;;;;9.90;4.03;;;;;;;;;;4931616;29;20046;-82
2022/04/21 04:03:42;;;;;;;10.80;4.75;;;;;;;;;;4928249;29;20016;-80
2022/04/21 04:10:51;;;;;;;8.45;3.92;;;;;;;;;;4935956;29;20492;-80
2022/04/21 04:11:37;;;;;;;7.78;3.75;;;;;;;;;;4935576;29;20054;-80
2022/04/21 04:14:02;;;;;;;10.57;3.35;;;;;;;;;;4935760;29;20451;-77
2022/04/21 04:16:28;;;;;;;7.63;3.53;;;;;;;;;;4935620;29;20020;-78
2022/04/21 04:18:54;;;;;;;8.27;3.65;;;;;;;;;;4933637;29;20042;-78
2022/04/21 04:21:19;;;;;;;8.30;3.20;;;;;;;;;;4909347;29;20111;-78
2022/04/21 04:23:44;;;;;;;12.88;3.88;;;;;;;;;;4916378;29;20115;-78
2022/04/21 04:26:10;;;;;;;8.30;3.30;;;;;;;;;;4917635;29;20067;-80
2022/04/21 04:28:36;;;;;;;8.80;3.22;;;;;;;;;;4917275;29;20443;-79
2022/04/21 04:31:01;;;;;;;9.75;3.20;;;;;;;;;;4918364;29;20035;-78
2022/04/21 04:33:27;;;;;;;7.03;2.95;;;;;;;;;;4916675;29;20403;-81
2022/04/21 04:35:52;;;;;;;10.55;3.28;;;;;;;;;;4917161;29;20036;-80
2022/04/21 04:38:17;;;;;;;10.15;3.17;;;;;;;;;;4924450;29;20148;-83
2022/04/21 04:40:42;;;;;;;7.75;3.28;;;;;;;;;;4940618;29;20555;-80
2022/04/21 04:43:07;;;;;;;9.00;3.33;;;;;;;;;;4921505;29;20475;-78
2022/04/21 04:48:16;;;;;;;11.15;4.07;;;;;;;;;;4938616;29;20022;-80
2022/04/21 04:50:41;;;;;;;12.50;3.25;;;;;;;;;;4938688;29;20024;-78
2022/04/21 04:53:06;;;;;;;14.18;3.53;;;;;;;;;;4938044;29;20402;-80
2022/04/21 04:55:32;;;;;;;10.95;3.20;;;;;;;;;;4910432;29;20501;-79
2022/04/21 04:57:57;;;;;;;7.35;3.08;;;;;;;;;;4931392;29;20027;-81
2022/04/21 05:00:24;;;;;;;8.48;3.30;;;;;;;;;;4919096;29;20491;-79
2022/04/21 05:02:49;;;;;;;7.82;3.25;;;;;;;;;;4935595;29;20020;-79
2022/04/21 05:05:15;;;;;;;8.32;3.20;;;;;;;;;;4918564;29;20031;-78
2022/04/21 05:07:40;;;;;;;7.68;2.85;;;;;;;;;;4934892;29;20034;-79
2022/04/21 05:10:07;;;;;;;9.82;3.30;;;;;;;;;;4935068;29;20027;-79
2022/04/21 05:12:32;;;;;;;7.90;3.45;;;;;;;;;;4929465;29;20020;-83
2022/04/21 05:14:58;;;;;;;7.68;3.63;;;;;;;;;;4937527;29;20399;-80
2022/04/21 05:17:23;;;;;;;8.38;3.10;;;;;;;;;;4937289;29;20034;-79
2022/04/21 05:19:49;;;;;;;6.80;3.10;;;;;;;;;;4937460;29;20141;-82
2022/04/21 05:22:15;;;;;;;7.60;2.63;;;;;;;;;;4937680;29;20016;-84
2022/04/21 05:24:44;;;;;;;6.97;2.95;;;;;;;;;;4919729;29;20023;-80
2022/04/21 05:27:09;;;;;;;;;;;;;;;;;;4932950;29;20031;-82
2022/04/21 05:32:19;;;;;;;8.73;2.80;;;;;;;;;;4935268;29;20293;-78
2022/04/21 05:34:44;;;;;;;13.60;3.75;;;;;;;;;;4918619;29;20027;-79
2022/04/21 05:37:10;;;;;;;12.82;3.42;;;;;;;;;;4936032;29;20020;-78
2022/04/21 05:39:36;;;;;;;8.38;3.22;;;;;;;;;;4936331;29;20471;-80
2022/04/21 05:42:01;;;;;;;7.32;3.13;;;;;;;;;;4935830;29;20024;-81
2022/04/21 05:44:29;;;;;;;9.55;2.80;;;;;;;;;;4911176;29;20205;-80
2022/04/21 05:46:54;;;;;;;6.93;3.20;;;;;;;;;;4909256;29;20023;-79
2022/04/21 05:49:20;;;;;;;7.82;3.58;;;;;;;;;;4917024;29;20024;-79
2022/04/21 05:51:48;;;;;;;10.82;3.47;;;;;;;;;;4917963;29;20060;-82
2022/04/21 05:54:14;;;;;;;9.45;3.38;;;;;;;;;;4915718;29;20111;-82
2022/04/21 05:56:39;;;;;;;9.70;2.88;;;;;;;;;;4913881;29;20132;-80
2022/04/21 05:59:04;;;;;;;8.73;2.95;;;;;;;;;;4915678;29;20036;-83
2022/04/21 06:01:30;;;;;;;10.95;3.00;;;;;;;;;;4923558;29;20054;-82
2022/04/21 06:03:55;;;;;;;14.75;5.55;;;;;;;;;;4934126;29;20257;-81
2022/04/21 06:06:21;;;;;;;12.57;3.33;;;;;;;;;;4934068;29;20066;-78
2022/04/21 06:08:46;;;;;;;10.77;3.50;;;;;;;;;;4933729;29;20016;-79
2022/04/21 06:11:14;;;;;;;9.52;2.88;;;;;;;;;;4933132;29;20028;-79
2022/04/21 06:13:43;;;;;;;10.57;3.33;;;;;;;;;;4932861;29;20471;-79
2022/04/21 06:16:09;;;;;;;12.15;3.33;;;;;;;;;;4933870;29;20494;-77
2022/04/21 06:18:36;;;;;;;11.00;3.50;;;;;;;;;;4906531;29;20040;-79
2022/04/21 06:21:01;;;;;;;6.28;3.25;;;;;;;;;;4923780;29;20047;-81
2022/04/21 06:23:26;;;;;;;8.27;2.78;;;;;;;;;;4918180;29;20464;-80
2022/04/21 06:25:56;;;;;;;12.25;4.85;;;;;;;;;;4917990;29;20479;-83
2022/04/21 06:28:22;;;;;;;10.95;4.22;;;;;;;;;;4933000;29;20028;-80
2022/04/21 06:30:47;;;;;;;5.70;3.00;;;;;;;;;;4918196;29;20432;-80
2022/04/21 06:33:12;;;;;;;10.32;2.97;;;;;;;;;;4916763;29;20108;-82
2022/04/21 06:35:37;;;;;;;7.45;3.42;;;;;;;;;;4925832;29;20039;-81
2022/04/21 06:38:03;;;;;;;6.68;3.05;;;;;;;;;;4916842;29;20020;-81
2022/04/21 06:40:28;;;;;;;12.65;2.88;;;;;;;;;;4917679;29;20046;-80
2022/04/21 06:42:53;;;;;;;8.73;3.67;;;;;;;;;;4917679;29;20415;-79
2022/04/21 06:48:02;;;;;;;9.82;3.28;;;;;;;;;;4918347;29;20027;-80
2022/04/21 06:50:31;;;;;;;10.85;3.25;;;;;;;;;;4925746;29;20392;-81
2022/04/21 06:52:57;;;;;;;8.13;3.15;;;;;;;;;;4936565;29;20031;-82
2022/04/21 06:55:22;;;;;;;9.18;4.15;;;;;;;;;;4937281;29;20412;-79
2022/04/21 06:57:47;;;;;;;8.30;3.30;;;;;;;;;;4936746;29;20027;-81
2022/04/21 07:00:13;;;;;;;14.40;4.45;;;;;;;;;;4936882;29;20026;-79
2022/04/21 07:02:38;;;;;;;9.90;3.55;;;;;;;;;;4936307;29;20440;-80
2022/04/21 07:05:08;;;;;;;8.18;3.95;;;;;;;;;;4937077;29;20595;-79
2022/04/21 07:07:33;;;;;;;9.63;2.80;;;;;;;;;;4888822;29;20028;-80
2022/04/21 07:10:00;;;;;;;9.98;3.67;;;;;;;;;;4923170;29;20020;-77
2022/04/21 07:12:26;;;;;;;5.95;2.70;;;;;;;;;;4915949;29;20499;-80
2022/04/21 07:14:51;;;;;;;13.25;4.07;;;;;;;;;;4917046;29;20032;-79
2022/04/21 07:17:18;;;;;;;5.90;2.95;;;;;;;;;;4917300;29;20023;-79
2022/04/21 07:19:44;;;;;;;11.70;3.15;;;;;;;;;;4917350;29;20107;-79
2022/04/21 07:22:10;;;;;;;8.10;3.28;;;;;;;;;;4916934;29;20556;-79
2022/04/21 07:24:35;;;;;;;8.93;3.25;;;;;;;;;;4917763;29;20016;-79
2022/04/21 07:27:00;;;;;;;13.32;3.78;;;;;;;;;;4927964;29;20056;-78
2022/04/21 07:29:26;;;;;;;7.55;3.00;;;;;;;;;;4935625;29;20439;-79
2022/04/21 07:31:51;;;;;;;13.27;3.92;;;;;;;;;;4935458;29;20432;-80
2022/04/21 07:34:16;;;;;;;10.20;3.00;;;;;;;;;;4935788;29;20043;-80
2022/04/21 07:36:42;;;;;;;8.77;3.15;;;;;;;;;;4935926;29;20427;-79
2022/04/21 07:39:07;;;;;;;6.32;2.55;;;;;;;;;;4935457;29;20477;-79
2022/04/21 07:41:32;;;;;;;10.38;3.30;;;;;;;;;;4930940;29;20079;-81
2022/04/21 07:43:58;;;;;;;9.07;3.83;;;;;;;;;;4912726;29;20126;-81
2022/04/21 07:46:23;;;;;;;45.40;21.17;;;;;;;;;;4935924;29;20099;-80
2022/04/21 07:51:32;;;;;;;7.80;3.30;;;;;;;;;;4936029;29;20031;-83
2022/04/21 07:53:58;;;;;;;25.40;6.60;;;;;;;;;;4918614;29;20027;-78
2022/04/21 07:56:23;;;;;;;15.18;4.90;;;;;;;;;;4918568;29;20034;-80
2022/04/21 07:58:51;;;;;;;10.15;3.80;;;;;;;;;;4929137;29;20202;-80
2022/04/21 08:01:16;;;;;;;9.95;3.30;;;;;;;;;;4927477;29;20020;-85
2022/04/21 08:03:43;;;;;;;8.55;4.03;;;;;;;;;;4935629;29;20027;-82
2022/04/21 08:06:08;;;;;;;11.80;4.60;;;;;;;;;;4935511;29;20032;-78
2022/04/21 08:08:34;;;;;;;11.00;4.53;;;;;;;;;;4935681;29;20510;-81
2022/04/21 08:10:59;;;;;;;12.23;3.92;;;;;;;;;;4918193;29;20535;-80
2022/04/21 08:13:25;;;;;;;9.00;4.05;;;;;;;;;;4917985;29;20019;-81
2022/04/21 08:15:53;;;;;;;9.68;3.55;;;;;;;;;;4903517;29;20024;-82
2022/04/21 08:18:18;;;;;;;9.80;3.53;;;;;;;;;;4920138;29;20546;-79
2022/04/21 08:20:43;;;;;;;11.95;3.80;;;;;;;;;;4916217;29;20032;-84
2022/04/21 08:23:08;;;;;;;14.63;3.85;;;;;;;;;;4916207;29;20448;-83
2022/04/21 08:34:00;;;;;;;14.32;4.30;;;;;;;;;;4923453;29;20027;-79
2022/04/21 08:36:26;;;;;;;10.95;3.92;;;;;;;;;;4917658;29;20023;-78
2022/04/21 08:38:51;;;;;;;13.40;4.10;;;;;;;;;;4937486;29;20375;-86
2022/04/21 08:41:17;;;;;;;10.23;4.15;;;;;;;;;;4940090;29;20086;-85
2022/04/21 08:43:45;;;;;;;13.55;3.40;;;;;;;;;;4938507;29;20016;-82
2022/04/21 08:46:12;;;;;;;9.63;4.50;;;;;;;;;;4921613;29;20027;-80
2022/04/21 08:48:41;;;;;;;9.45;3.90;;;;;;;;;;4928565;29;20032;-80
2022/04/21 08:51:10;;;;;;;7.93;4.25;;;;;;;;;;4912388;29;20024;-80
2022/04/21 08:53:36;;;;;;;7.30;3.35;;;;;;;;;;4919496;29;20024;-82
2022/04/21 08:56:01;;;;;;;8.20;3.58;;;;;;;;;;4920509;29;20021;-83
2022/04/21 08:58:26;;;;;;;9.60;3.38;;;;;;;;;;4930281;29;20016;-83
2022/04/21 09:00:56;;;;;;;8.00;3.95;;;;;;;;;;4915900;29;20020;-81
2022/04/21 09:03:22;;;;;;;10.93;4.18;;;;;;;;;;4914849;29;20035;-82
2022/04/21 09:05:47;;;;;;;57.33;14.55;;;;;;;;;;4919540;29;20023;-75
2022/04/21 09:08:23;;;;;;;17.25;4.95;;;;;;;;;;4919097;29;20051;-75
2022/04/21 09:11:01;;;;;;;7.82;3.42;;;;;;;;;;4915131;29;20020;-75
2022/04/21 09:13:33;;;;;;;20.23;5.37;;;;;;;;;;4915013;29;20039;-76
2022/04/21 09:16:02;;;;;;;13.60;4.00;;;;;;;;;;4915211;29;20736;-75
2022/04/21 09:18:35;;;;;;;13.68;4.22;;;;;;;;;;4915158;29;20036;-76
2022/04/21 09:21:05;;;;;;;7.43;3.72;;;;;;;;;;4915313;29;20028;-75
2022/04/21 09:23:33;;;;;;;11.52;3.80;;;;;;;;;;4922195;29;20079;-75
2022/04/21 09:26:05;;;;;;;12.93;4.30;;;;;;;;;;4915368;29;20032;-75
2022/04/21 09:28:31;;;;;;;8.60;3.78;;;;;;;;;;4913697;29;20052;-74
2022/04/21 09:30:57;;;;;;;16.48;5.05;;;;;;;;;;4913718;29;20054;-75
2022/04/21 09:33:30;;;;;;;11.55;3.95;;;;;;;;;;4913726;29;20017;-75
2022/04/21 09:35:56;;;;;;;11.57;4.10;;;;;;;;;;4913952;29;20556;-75
2022/04/21 09:38:21;;;;;;;9.55;3.60;;;;;;;;;;4922084;29;20027;-76
2022/04/21 09:40:47;;;;;;;7.50;3.75;;;;;;;;;;4926440;29;20031;-75
2022/04/21 09:43:13;;;;;;;11.55;4.03;;;;;;;;;;4933693;29;20020;-75
2022/04/21 09:48:29;;;;;;;10.80;4.05;;;;;;;;;;4934212;29;20031;-75
2022/04/21 09:51:05;;;;;;;12.27;4.60;;;;;;;;;;4933878;29;20464;-76
2022/04/21 09:53:31;;;;;;;8.73;3.53;;;;;;;;;;4917309;29;20035;-76
2022/04/21 09:56:08;;;;;;;13.70;4.72;;;;;;;;;;4907840;29;20394;-76
2022/04/21 09:58:41;;;;;;;13.77;4.68;;;;;;;;;;4919526;29;20492;-76
2022/04/21 10:01:07;;;;;;;10.85;4.15;;;;;;;;;;4918212;29;20072;-75
2022/04/21 10:03:33;;;;;;;17.80;3.80;;;;;;;;;;4916929;29;20020;-75
2022/04/21 10:05:58;;;;;;;9.18;4.05;;;;;;;;;;4918251;29;20024;-75
2022/04/21 10:08:24;;;;;;;14.35;4.10;;;;;;;;;;4918356;29;20028;-77
2022/04/21 10:10:51;;;;;;;10.20;4.30;;;;;;;;;;4916788;29;20020;-77
2022/04/21 10:13:16;;;;;;;8.02;3.78;;;;;;;;;;4910720;29;20034;-76
2022/04/21 10:15:43;;;;;;;9.73;4.18;;;;;;;;;;4929202;29;20023;-78
2022/04/21 10:18:11;;;;;;;10.25;4.07;;;;;;;;;;4920001;29;20043;-75
2022/04/21 10:20:37;;;;;;;11.35;5.10;;;;;;;;;;4936790;29;20027;-76
2022/04/21 10:23:02;;;;;;;16.08;4.40;;;;;;;;;;4936720;29;20023;-76
2022/04/21 10:25:33;;;;;;;14.32;4.38;;;;;;;;;;4919761;29;20523;-75
2022/04/21 10:27:58;;;;;;;11.13;4.05;;;;;;;;;;4915398;29;20119;-77
2022/04/21 10:30:29;;;;;;;11.20;4.10;;;;;;;;;;4926263;29;20103;-76
2022/04/21 10:32:59;;;;;;;11.05;3.92;;;;;;;;;;4936618;29;20650;-76
2022/04/21 10:35:24;;;;;;;10.07;4.88;;;;;;;;;;4937019;29;20032;-76
2022/04/21 10:38:08;;;;;;;10.68;4.35;;;;;;;;;;4936806;29;20519;-76
2022/04/21 10:40:33;;;;;;;8.18;4.38;;;;;;;;;;4919603;29;20558;-77
2022/04/21 10:42:58;;;;;;;10.25;4.53;;;;;;;;;;4919397;29;20027;-77
2022/04/21 10:45:23;;;;;;;12.75;5.00;;;;;;;;;;4925662;29;20490;-77
2022/04/21 10:48:05;;;;;;;14.02;5.00;;;;;;;;;;4917620;29;20016;-76
2022/04/21 10:50:31;;;;;;;13.00;5.22;;;;;;;;;;4917357;29;20261;-78
2022/04/21 10:58:34;;;;;;;15.15;5.35;;;;;;;;;;4917894;29;20396;-77
2022/04/21 11:01:11;;;;;;;14.30;6.13;;;;;;;;;;4921398;29;20292;-77
2022/04/21 11:03:37;;;;;;;10.18;4.70;;;;;;;;;;4917952;29;20465;-77
2022/04/21 11:06:15;;;;;;;13.18;5.32;;;;;;;;;;4914952;29;20032;-77
2022/04/21 11:08:41;;;;;;;14.98;5.80;;;;;;;;;;4917345;29;20028;-78
2022/04/21 11:11:06;;;;;;;15.52;7.13;;;;;;;;;;4915808;29;20028;-76
2022/04/21 11:13:50;;;;;;;12.27;6.35;;;;;;;;;;4916852;29;20019;-77
2022/04/21 11:16:34;;;;;;;12.90;6.85;;;;;;;;;;4916159;29;20571;-76
2022/04/21 11:19:22;;;;;;;12.13;6.65;;;;;;;;;;4922940;29;20020;-76
2022/04/21 11:21:49;;;;;;;;;;;;;;;;;;4928470;29;20175;-77
2022/04/21 11:24:14;;;;;;;14.80;5.82;;;;;;;;;;4935704;29;19906;-77
2022/04/21 11:26:41;;;;;;;16.42;7.13;;;;;;;;;;4934639;29;20383;-77
2022/04/21 11:29:07;;;;;;;18.67;8.50;;;;;;;;;;4935482;29;20087;-77
2022/04/21 11:31:32;;;;;;;17.17;8.10;;;;;;;;;;4927508;29;20464;-76
2022/04/21 11:34:04;;;;;;;23.00;7.28;;;;;;;;;;4924384;29;20071;-76
2022/04/21 11:36:40;;;;;;;16.60;7.70;;;;;;;;;;4916862;29;20107;-77
2022/04/21 11:39:08;;;;;;;16.67;7.70;;;;;;;;;;4931010;29;20028;-75
2022/04/21 11:41:34;;;;;;;16.23;7.63;;;;;;;;;;4916479;29;20023;-78
2022/04/21 11:44:01;;;;;;;15.90;7.60;;;;;;;;;;4916278;29;20024;-78
2022/04/21 11:46:26;;;;;;;12.38;7.32;;;;;;;;;;4931110;29;20462;-77
2022/04/21 11:49:00;;;;;;;17.40;8.15;;;;;;;;;;4919641;29;20047;-77
2022/04/21 11:51:26;;;;;;;21.55;7.55;;;;;;;;;;4898564;29;20103;-77
2022/04/21 11:53:52;;;;;;;19.10;7.82;;;;;;;;;;4880643;29;20492;-77
2022/04/21 11:56:18;;;;;;;18.35;7.55;;;;;;;;;;4897583;29;20056;-77
2022/04/21 11:58:43;;;;;;;14.23;7.30;;;;;;;;;;4880481;29;20457;-76
2022/04/21 12:06:48;;;;;;;16.58;7.78;;;;;;;;;;4917057;29;20051;-77
2022/04/21 12:09:15;;;;;;;19.35;9.05;;;;;;;;;;4916039;29;20099;-78
2022/04/21 12:11:40;;;;;;;16.50;8.80;;;;;;;;;;4914643;29;20105;-77
2022/04/21 12:14:05;;;;;;;16.45;8.70;;;;;;;;;;4914561;29;20572;-76
2022/04/21 12:16:36;;;;;;;24.58;8.75;;;;;;;;;;4932708;29;20087;-92
2022/04/21 12:19:11;;;;;;;16.27;8.13;;;;;;;;;;4922928;29;20028;-91
2022/04/21 12:21:39;;;;;;;17.95;8.02;;;;;;;;;;4922732;29;20519;-92
2022/04/21 12:24:12;;;;;;;21.67;8.48;;;;;;;;;;4908306;29;20023;-93
2022/04/21 12:26:37;;;;;;;16.15;8.00;;;;;;;;;;4899979;29;20492;-92
2022/04/21 12:29:05;;;;;;;22.52;7.68;;;;;;;;;;4883274;29;20040;-92
2022/04/21 12:31:46;;;;;;;22.52;8.93;;;;;;;;;;4882078;29;20113;-94
2022/04/21 12:34:11;;;;;;;21.35;8.98;;;;;;;;;;4883378;29;20052;-91
2022/04/21 12:36:36;;;;;;;19.92;8.40;;;;;;;;;;4883371;29;20158;-91
2022/04/21 12:39:02;;;;;;;19.23;8.63;;;;;;;;;;4900893;29;20086;-92
2022/04/21 12:41:28;;;;;;;14.52;7.97;;;;;;;;;;4899586;29;20497;-93
2022/04/21 12:43:53;;;;;;;18.67;8.82;;;;;;;;;;4881591;29;20536;-92
2022/04/21 12:46:19;;;;;;;20.10;8.32;;;;;;;;;;4885074;29;20460;-90
2022/04/21 12:48:51;;;;;;;23.35;9.50;;;;;;;;;;4889670;29;20031;-90
2022/04/21 12:51:20;;;;;;;26.35;8.63;;;;;;;;;;4889895;29;20013;-91
2022/04/21 12:53:54;;;;;;;17.92;8.88;;;;;;;;;;4888384;29;20404;-91
2022/04/21 12:56:19;;;;;;;19.67;10.25;;;;;;;;;;4908509;29;20023;-89
2022/04/21 12:58:54;;;;;;;19.77;9.10;;;;;;;;;;4917725;29;20028;-91
2022/04/21 13:01:19;;;;;;;22.23;9.02;;;;;;;;;;4916639;29;20035;-89
2022/04/21 13:03:44;;;;;;;26.27;9.85;;;;;;;;;;4917188;29;20016;-89
2022/04/21 13:06:10;;;;;;;17.58;8.85;;;;;;;;;;4918442;29;20103;-82
2022/04/21 13:08:35;;;;;;;25.23;8.88;;;;;;;;;;4925228;29;20032;-90
2022/04/21 13:11:03;;;;;;;21.33;9.82;;;;;;;;;;4921724;29;20119;-88
2022/04/21 13:13:29;;;;;;;24.00;10.30;;;;;;;;;;4916790;29;20067;-90
2022/04/21 13:15:55;;;;;;;26.05;10.15;;;;;;;;;;4908005;29;20025;-89
2022/04/21 13:18:20;;;;;;;24.83;11.27;;;;;;;;;;4902188;29;20020;-91
2022/04/21 13:23:30;;;;;;;20.35;10.95;;;;;;;;;;4921252;29;20064;-90
2022/04/21 13:25:55;;;;;;;21.90;10.93;;;;;;;;;;4902644;29;20020;-91
2022/04/21 13:28:24;;;;;;;20.45;10.63;;;;;;;;;;4924016;29;20047;-89
2022/04/21 13:33:21;;;;;;;23.67;10.98;;;;;;;;;;4908932;29;20016;-91
2022/04/21 13:33:38;;;;;;;21.77;11.43;;;;;;;;;;4923661;29;20028;-89
2022/04/21 13:36:04;;;;;;;21.38;10.63;;;;;;;;;;4924051;29;20490;-88
2022/04/21 13:38:29;;;;;;;21.52;10.25;;;;;;;;;;4903737;29;20024;-86
2022/04/21 13:40:54;;;;;;;22.42;10.23;;;;;;;;;;4907846;29;20111;-90
2022/04/21 13:43:20;;;;;;;19.93;10.40;;;;;;;;;;4908217;29;20015;-87
2022/04/21 13:45:48;;;;;;;19.40;9.85;;;;;;;;;;4936039;29;20270;-88
2022/04/21 13:48:14;;;;;;;18.63;10.45;;;;;;;;;;4923905;29;20051;-91
2022/04/21 13:50:52;;;;;;;21.42;10.40;;;;;;;;;;4947233;23;20452;-87
2022/04/21 13:56:35;;;;;;;18.65;9.18;;;;;;;;;;4910577;29;20098;-88
2022/04/21 13:59:41;;;;;;;20.25;9.75;;;;;;;;;;4922733;29;20063;-91
2022/04/21 14:02:06;;;;;;;18.02;9.80;;;;;;;;;;4914621;29;20025;-92
2022/04/21 14:05:04;;;;;;;;;;;;;;;;;;;;;
2022/04/21 14:07:39;;;;;;;;;;;;;;;;;;4922331;29;20089;-89
2022/04/21 14:10:07;;;;;;;16.15;9.82;;;;;;;;;;4909254;29;19912;-89
2022/04/21 14:12:36;;;;;;;22.08;10.65;;;;;;;;;;4920928;29;20028;-90
2022/04/21 14:15:12;;;;;;;;;;;;;;;;;;;;;
2022/04/21 14:17:50;;;;;;;21.98;11.32;;;;;;;;;;4911349;29;20447;-92
2022/04/21 14:20:21;;;;;;;25.48;12.10;;;;;;;;;;4905783;29;20032;-91
2022/04/21 14:22:58;;;;;;;20.95;11.68;;;;;;;;;;4905247;29;20433;-94
2022/04/21 14:25:28;;;;;;;21.63;12.10;;;;;;;;;;4902848;29;20028;-91
2022/04/21 14:28:05;;;;;;;20.42;12.18;;;;;;;;;;4904814;29;20096;-92
2022/04/21 14:31:14;;;;;;;26.45;14.35;;;;;;;;;;4905725;29;20120;-95
2022/04/21 14:34:08;;;;;;;;;;;;;;;;;;;;;
2022/04/21 14:37:09;;;;;;;17.45;9.52;;;;;;;;;;4906219;29;20099;-93
2022/04/21 14:48:37;;;;;;;12.55;7.28;;;;;;;;;;4861130;29;20057;-86
2022/04/21 14:51:37;;;;;;;;;;;;;;;;;;;;;
2022/04/21 14:54:05;;;;;;;15.20;7.30;;;;;;;;;;4896058;29;20029;-92
2022/04/21 14:56:46;;;;;;;12.32;6.22;;;;;;;;;;4901358;29;20075;-90
2022/04/21 14:59:27;;;;;;;11.55;6.20;;;;;;;;;;4907057;29;20024;-94
2022/04/21 15:01:54;;;;;;;10.52;5.28;;;;;;;;;;4921313;29;20028;-92
2022/04/21 15:04:24;;;;;;;17.30;6.33;;;;;;;;;;4921592;29;20031;-92
2022/04/21 15:07:05;;;;;;;11.70;5.47;;;;;;;;;;4921359;29;20087;-94
2022/04/21 15:09:31;;;;;;;10.85;6.30;;;;;;;;;;4921656;29;20448;-90
2022/04/21 15:11:59;;;;;;;10.63;5.70;;;;;;;;;;4905502;29;20025;-89
2022/04/21 15:14:27;;;;;;;11.43;6.50;;;;;;;;;;4899146;29;20016;-90
2022/04/21 15:16:52;;;;;;;10.38;5.40;;;;;;;;;;4899522;29;20077;-91
2022/04/21 15:19:24;;;;;;;11.00;5.53;;;;;;;;;;4897487;29;20036;-91
2022/04/21 15:21:56;;;;;;;10.48;5.32;;;;;;;;;;4913370;29;20501;-89
2022/04/21 15:24:21;;;;;;;9.40;5.40;;;;;;;;;;4897655;29;20103;-89
2022/04/21 15:26:49;;;;;;;11.30;5.28;;;;;;;;;;4898749;29;20047;-90
2022/04/21 15:29:15;;;;;;;11.80;5.80;;;;;;;;;;4897739;29;20016;-91
2022/04/21 15:31:40;;;;;;;11.77;6.20;;;;;;;;;;4897097;29;20120;-92
2022/04/21 15:34:05;;;;;;;11.32;5.93;;;;;;;;;;4913283;29;20107;-91
2022/04/21 15:36:31;;;;;;;13.43;6.07;;;;;;;;;;4899387;29;20033;-93
2022/04/21 15:38:56;;;;;;;18.00;10.07;;;;;;;;;;4898790;29;20060;-91
2022/04/21 15:41:22;;;;;;;17.40;7.85;;;;;;;;;;4898316;29;20027;-91
2022/04/21 15:43:47;;;;;;;14.18;7.43;;;;;;;;;;4898879;29;20021;-92
2022/04/21 15:46:13;;;;;;;10.18;6.00;;;;;;;;;;4915534;29;20151;-94